Time;durP1;ratioP1;P1;durP2;ratioP2;P2;SDS_P1;SDS_P2;PMS_P1;PMS_P2;Temp;Humidity;BMP_temperature;BMP_pressure;BME280_temperature;BME280_humidity;BME280_pressure;Samples;Min_cycle;Max_cycle;Signal;HPM_P1;HPM_P2
2022/02/15 00:01:46;;;;;;;6.10;2.80;;;8.80;95.70;;;;;;5076911;28;20440;-70
2022/02/15 00:04:13;;;;;;;11.93;2.83;;;8.80;95.90;;;;;;5079363;28;20451;-71
2022/02/15 00:06:41;;;;;;;7.70;3.00;;;8.80;95.90;;;;;;5078221;28;20539;-70
2022/02/15 00:09:09;;;;;;;3.97;2.37;;;8.80;96.10;;;;;;5076654;28;20432;-71
2022/02/15 00:11:36;;;;;;;7.40;3.40;;;8.80;96.20;;;;;;5076679;28;20444;-71
2022/02/15 00:14:03;;;;;;;8.23;2.23;;;8.90;96.20;;;;;;5076674;28;20451;-71
2022/02/15 00:16:30;;;;;;;8.30;2.53;;;8.90;96.20;;;;;;5076444;28;20472;-71
2022/02/15 00:18:57;;;;;;;11.67;4.40;;;8.80;96.20;;;;;;5076337;28;20444;-71
2022/02/15 00:21:24;;;;;;;8.00;2.77;;;8.80;96.40;;;;;;5076138;28;20449;-71
2022/02/15 00:23:50;;;;;;;12.20;3.30;;;8.80;96.60;;;;;;5075977;28;20429;-71
2022/02/15 00:26:19;;;;;;;4.90;2.53;;;8.70;96.70;;;;;;5075889;28;20507;-70
2022/02/15 00:28:46;;;;;;;5.13;2.60;;;8.70;96.90;;;;;;5075714;28;20441;-71
2022/02/15 00:31:12;;;;;;;8.43;3.17;;;8.70;97.00;;;;;;5076163;28;20453;-71
2022/02/15 00:33:39;;;;;;;6.93;2.70;;;8.80;97.00;;;;;;5075798;28;20452;-71
2022/02/15 00:36:06;;;;;;;5.90;2.73;;;8.80;96.90;;;;;;5075679;28;20555;-70
2022/02/15 00:38:33;;;;;;;6.97;2.93;;;8.80;97.00;;;;;;5075268;28;21025;-71
2022/02/15 00:41:00;;;;;;;10.40;2.87;;;8.80;97.00;;;;;;5075613;28;20944;-71
2022/02/15 00:43:28;;;;;;;5.10;2.53;;;8.80;97.00;;;;;;5075545;28;20437;-71
2022/02/15 00:45:54;;;;;;;12.00;3.20;;;8.80;97.00;;;;;;5075512;28;20476;-71
2022/02/15 00:48:21;;;;;;;7.50;3.30;;;8.80;97.00;;;;;;5075550;28;20449;-71
2022/02/15 00:50:48;;;;;;;7.63;2.90;;;8.70;97.20;;;;;;5076288;28;20449;-71
2022/02/15 00:53:15;;;;;;;4.40;2.90;;;8.70;97.50;;;;;;5075576;28;20432;-70
2022/02/15 00:55:42;;;;;;;7.17;3.10;;;8.60;97.70;;;;;;5075343;28;20471;-70
2022/02/15 00:58:09;;;;;;;9.10;3.60;;;8.60;97.90;;;;;;5075193;28;20571;-71
2022/02/15 01:00:37;;;;;;;8.33;2.70;;;8.50;98.20;;;;;;5075301;28;20449;-71
2022/02/15 01:03:04;;;;;;;9.00;5.53;;;8.50;98.70;;;;;;5075589;28;20447;-71
2022/02/15 01:05:30;;;;;;;12.97;3.17;;;8.50;98.50;;;;;;5075078;28;20472;-70
2022/02/15 01:07:57;;;;;;;10.10;3.50;;;8.50;98.40;;;;;;5075719;28;20471;-71
2022/02/15 01:10:24;;;;;;;6.23;3.07;;;8.50;98.50;;;;;;5075752;28;20448;-71
2022/02/15 01:12:51;;;;;;;7.53;2.73;;;8.50;98.50;;;;;;5076273;28;20456;-71
2022/02/15 01:15:18;;;;;;;8.07;3.07;;;8.50;98.60;;;;;;5075469;28;20465;-70
2022/02/15 01:17:47;;;;;;;9.23;3.53;;;8.60;98.60;;;;;;5075346;28;20469;-71
2022/02/15 01:20:14;;;;;;;9.27;4.50;;;8.60;98.60;;;;;;5075154;28;20531;-71
2022/02/15 01:22:41;;;;;;;9.33;3.17;;;8.60;98.90;;;;;;5074943;28;20444;-71
2022/02/15 01:25:09;;;;;;;8.47;3.43;;;8.70;98.60;;;;;;5074802;28;20475;-70
2022/02/15 01:27:35;;;;;;;8.70;2.63;;;8.70;98.50;;;;;;5074812;28;20443;-71
2022/02/15 01:30:03;;;;;;;6.70;3.57;;;8.80;98.40;;;;;;5074362;28;20436;-71
2022/02/15 01:32:30;;;;;;;8.40;3.40;;;8.80;98.30;;;;;;5074861;28;20451;-71
2022/02/15 01:34:58;;;;;;;10.40;3.67;;;8.80;98.20;;;;;;5075223;28;20447;-70
2022/02/15 01:37:26;;;;;;;7.93;3.80;;;8.90;98.10;;;;;;5074334;28;20473;-71
2022/02/15 01:39:52;;;;;;;12.07;4.23;;;8.90;98.10;;;;;;5074670;28;20444;-71
2022/02/15 01:42:20;;;;;;;9.80;3.70;;;9.00;97.90;;;;;;5074453;28;20832;-71
2022/02/15 01:44:47;;;;;;;10.10;3.70;;;9.00;97.80;;;;;;5074230;28;20448;-70
2022/02/15 01:47:22;;;;;;;10.40;3.80;;;9.00;97.70;;;;;;5074245;28;20456;-71
2022/02/15 01:49:49;;;;;;;6.80;3.33;;;8.90;97.70;;;;;;5074137;28;20451;-71
2022/02/15 01:52:20;;;;;;;8.10;3.93;;;8.90;98.00;;;;;;5074160;28;20474;-71
2022/02/15 01:54:48;;;;;;;9.10;3.80;;;8.90;97.90;;;;;;5074069;28;20437;-71
2022/02/15 01:57:15;;;;;;;6.77;3.30;;;8.80;97.90;;;;;;5073900;28;20480;-71
2022/02/15 01:59:41;;;;;;;6.03;4.00;;;8.90;98.10;;;;;;5074728;28;20456;-71
2022/02/15 02:02:08;;;;;;;12.33;4.07;;;8.90;97.80;;;;;;5073959;28;20779;-71
2022/02/15 02:07:21;;;;;;;5.00;3.60;;;8.90;97.90;;;;;;5073496;28;20435;-70
2022/02/15 02:09:47;;;;;;;4.37;2.90;;;8.90;97.80;;;;;;5073531;28;20452;-70
2022/02/15 02:12:14;;;;;;;7.43;3.80;;;8.90;97.70;;;;;;5074043;28;20436;-70
2022/02/15 02:14:41;;;;;;;6.80;3.70;;;8.90;97.70;;;;;;5073707;28;20453;-70
2022/02/15 02:17:08;;;;;;;10.50;3.57;;;8.70;97.70;;;;;;5073597;28;20465;-71
2022/02/15 02:19:34;;;;;;;9.50;4.47;;;8.80;97.90;;;;;;5073637;28;20817;-71
2022/02/15 02:22:04;;;;;;;8.80;3.60;;;8.70;98.20;;;;;;5073564;28;20897;-71
2022/02/15 02:24:30;;;;;;;5.83;3.20;;;8.70;98.30;;;;;;5073247;28;21008;-71
2022/02/15 02:26:57;;;;;;;4.13;3.40;;;8.50;98.40;;;;;;5073473;28;20475;-70
2022/02/15 02:29:24;;;;;;;7.27;4.40;;;8.50;98.70;;;;;;5073523;28;20440;-71
2022/02/15 02:31:50;;;;;;;5.93;3.50;;;8.40;98.80;;;;;;5073454;28;20449;-71
2022/02/15 02:34:18;;;;;;;9.50;4.57;;;8.40;99.20;;;;;;5073484;28;20443;-71
2022/02/15 02:36:45;;;;;;;11.43;4.57;;;8.40;99.40;;;;;;5073226;28;20468;-70
2022/02/15 02:39:13;;;;;;;6.50;4.00;;;8.40;99.50;;;;;;5073295;28;20484;-70
2022/02/15 02:41:40;;;;;;;10.77;4.33;;;8.40;99.50;;;;;;5073457;28;20555;-70
2022/02/15 02:44:07;;;;;;;5.40;4.13;;;8.40;99.60;;;;;;5073565;28;20445;-70
2022/02/15 02:46:34;;;;;;;6.23;4.50;;;8.40;99.80;;;;;;5073227;28;20472;-70
2022/02/15 02:49:01;;;;;;;6.67;4.10;;;8.40;99.70;;;;;;5073265;28;20472;-71
2022/02/15 02:51:27;;;;;;;6.70;4.20;;;8.30;99.90;;;;;;5073233;28;20440;-71
2022/02/15 02:53:54;;;;;;;6.90;4.20;;;8.30;99.90;;;;;;5073208;28;20468;-71
2022/02/15 02:56:22;;;;;;;13.23;5.17;;;8.30;99.90;;;;;;5073128;28;20475;-71
2022/02/15 02:58:49;;;;;;;8.47;4.63;;;8.30;99.90;;;;;;5073132;28;20846;-71
2022/02/15 03:01:16;;;;;;;10.30;4.53;;;8.30;99.90;;;;;;5072963;28;20462;-71
2022/02/15 03:03:42;;;;;;;7.47;4.90;;;8.30;99.90;;;;;;5073183;28;20460;-71
2022/02/15 03:06:09;;;;;;;5.70;4.40;;;8.30;99.90;;;;;;5073011;28;20833;-70
2022/02/15 03:08:36;;;;;;;7.83;4.27;;;8.30;99.90;;;;;;5072768;28;20444;-71
2022/02/15 03:11:03;;;;;;;10.43;4.57;;;8.30;99.90;;;;;;5073243;28;20445;-70
2022/02/15 03:13:31;;;;;;;12.03;5.27;;;8.30;99.90;;;;;;5072751;28;20475;-70
2022/02/15 03:15:58;;;;;;;9.43;5.53;;;8.20;99.90;;;;;;5073064;28;20473;-69
2022/02/15 03:18:24;;;;;;;10.83;4.90;;;8.20;99.90;;;;;;5072584;28;20995;-70
2022/02/15 03:20:51;;;;;;;10.20;4.93;;;8.20;99.90;;;;;;5073083;28;20453;-70
2022/02/15 03:23:19;;;;;;;12.13;4.33;;;8.10;99.90;;;;;;5072602;28;20448;-70
2022/02/15 03:25:45;;;;;;;9.17;4.60;;;8.20;99.90;;;;;;5072858;28;20469;-69
2022/02/15 03:28:12;;;;;;;8.03;4.50;;;8.20;99.90;;;;;;5072800;28;20863;-69
2022/02/15 03:30:40;;;;;;;9.13;4.73;;;8.10;99.90;;;;;;5072618;28;20444;-69
2022/02/15 03:33:07;;;;;;;10.23;4.60;;;8.20;99.90;;;;;;5075969;28;20451;-69
2022/02/15 03:35:33;;;;;;;5.90;3.93;;;8.20;99.90;;;;;;5076296;28;21020;-69
2022/02/15 03:38:00;;;;;;;9.40;5.37;;;8.20;99.90;;;;;;5077203;28;20586;-70
2022/02/15 03:43:04;;;;;;;9.70;5.03;;;8.20;99.90;;;;;;5076590;28;20448;-70
2022/02/15 03:43:14;;;;;;;11.73;5.00;;;8.20;99.90;;;;;;5076046;28;20457;-70
2022/02/15 03:45:42;;;;;;;6.83;4.40;;;8.20;99.90;;;;;;5076497;28;20542;-69
2022/02/15 03:48:09;;;;;;;8.17;4.47;;;8.20;99.90;;;;;;5076223;28;20209;-69
2022/02/15 03:50:36;;;;;;;8.17;4.40;;;8.20;99.90;;;;;;5076140;28;20436;-70
2022/02/15 03:53:04;;;;;;;7.27;4.93;;;8.10;99.90;;;;;;5076352;28;20452;-70
2022/02/15 03:55:31;;;;;;;11.37;5.40;;;8.10;99.90;;;;;;5076311;28;20468;-69
2022/02/15 03:57:58;;;;;;;10.43;5.40;;;8.10;99.90;;;;;;5076166;28;20519;-69
2022/02/15 04:00:24;;;;;;;7.27;5.70;;;8.10;99.90;;;;;;5076213;28;20457;-69
2022/02/15 04:02:54;;;;;;;8.40;5.43;;;8.00;99.90;;;;;;5076227;28;20531;-69
2022/02/15 04:05:22;;;;;;;10.47;6.50;;;7.90;99.90;;;;;;5076221;28;20476;-69
2022/02/15 04:07:49;;;;;;;7.07;5.47;;;7.90;99.90;;;;;;5075731;28;20468;-69
2022/02/15 04:10:17;;;;;;;11.17;6.70;;;7.90;99.90;;;;;;5076162;28;20447;-70
2022/02/15 04:12:44;;;;;;;7.30;5.80;;;7.90;99.90;;;;;;5075951;28;20455;-70
2022/02/15 04:15:11;;;;;;;9.10;5.40;;;7.90;99.90;;;;;;5075685;28;20457;-69
2022/02/15 04:17:38;;;;;;;8.73;5.40;;;7.90;99.90;;;;;;5075954;28;20794;-69
2022/02/15 04:20:07;;;;;;;10.37;5.27;;;7.90;99.90;;;;;;5076003;28;20467;-69
2022/02/15 04:22:34;;;;;;;10.20;6.70;;;8.00;99.90;;;;;;5075893;28;20455;-69
2022/02/15 04:25:01;;;;;;;9.97;7.20;;;7.90;99.90;;;;;;5075857;28;20456;-69
2022/02/15 04:27:28;;;;;;;8.70;6.53;;;7.90;99.90;;;;;;5075869;28;20445;-70
2022/02/15 04:29:55;;;;;;;11.43;6.00;;;7.90;99.90;;;;;;5075823;28;20448;-70
2022/02/15 04:32:22;;;;;;;8.50;5.87;;;7.90;99.90;;;;;;5075851;28;20452;-70
2022/02/15 04:34:49;;;;;;;7.37;6.50;;;7.90;99.90;;;;;;5075652;28;20453;-69
2022/02/15 04:37:17;;;;;;;16.23;7.47;;;7.90;99.90;;;;;;5075705;28;20444;-69
2022/02/15 04:39:44;;;;;;;9.67;7.33;;;7.80;99.90;;;;;;5075222;28;20483;-69
2022/02/15 04:42:11;;;;;;;13.00;7.60;;;7.80;99.90;;;;;;5075291;28;20504;-69
2022/02/15 04:44:38;;;;;;;7.60;6.13;;;7.80;99.90;;;;;;5074500;28;20449;-69
2022/02/15 04:47:05;;;;;;;11.90;7.30;;;7.80;99.90;;;;;;5075260;28;20499;-70
2022/02/15 04:49:32;;;;;;;9.40;7.53;;;7.80;99.90;;;;;;5075451;28;20460;-70
2022/02/15 04:51:59;;;;;;;12.97;7.63;;;7.80;99.90;;;;;;5075629;28;20466;-69
2022/02/15 04:54:27;;;;;;;10.87;7.80;;;7.80;99.90;;;;;;5075426;28;20452;-70
2022/02/15 04:56:55;;;;;;;10.90;7.17;;;7.80;99.90;;;;;;5075473;28;20461;-70
2022/02/15 04:59:22;;;;;;;9.73;6.90;;;7.70;99.90;;;;;;5075358;28;20487;-70
2022/02/15 05:01:49;;;;;;;11.50;6.87;;;7.70;99.90;;;;;;5075247;28;20444;-70
2022/02/15 05:06:58;;;;;;;14.43;6.70;;;7.70;99.90;;;;;;5074365;28;20534;-70
2022/02/15 05:09:26;;;;;;;9.10;7.17;;;7.60;99.90;;;;;;5075109;28;20808;-70
2022/02/15 05:11:53;;;;;;;16.23;7.60;;;7.70;99.90;;;;;;5075036;28;20447;-70
2022/02/15 05:14:20;;;;;;;12.70;7.40;;;7.70;99.90;;;;;;5074679;28;20448;-70
2022/02/15 05:16:47;;;;;;;16.43;7.50;;;7.70;99.90;;;;;;5074960;28;20464;-70
2022/02/15 05:19:14;;;;;;;10.40;6.93;;;7.70;99.90;;;;;;5074899;28;20480;-70
2022/02/15 05:21:41;;;;;;;12.67;7.17;;;7.70;99.90;;;;;;5074849;28;20453;-70
2022/02/15 05:24:08;;;;;;;13.83;7.43;;;7.60;99.90;;;;;;5074839;28;20439;-70
2022/02/15 05:26:36;;;;;;;12.63;7.60;;;7.60;99.90;;;;;;5074529;28;20483;-70
2022/02/15 05:29:03;;;;;;;18.53;7.90;;;7.60;99.90;;;;;;5074360;28;20943;-70
2022/02/15 05:31:30;;;;;;;9.60;7.50;;;7.60;99.90;;;;;;5074328;28;20793;-70
2022/02/15 05:33:56;;;;;;;16.23;7.90;;;7.60;99.90;;;;;;5074810;28;20459;-70
2022/02/15 05:36:23;;;;;;;13.10;7.90;;;7.60;99.90;;;;;;5074807;28;20461;-70
2022/02/15 05:38:50;;;;;;;11.70;7.83;;;7.50;99.90;;;;;;5074715;28;20465;-70
2022/02/15 05:41:17;;;;;;;14.63;7.07;;;7.60;99.90;;;;;;5074258;28;20977;-70
2022/02/15 05:43:45;;;;;;;16.63;7.50;;;7.60;99.90;;;;;;5074043;28;20453;-70
2022/02/15 05:46:11;;;;;;;11.30;7.67;;;7.50;99.90;;;;;;5074316;28;20461;-70
2022/02/15 05:48:38;;;;;;;11.40;7.90;;;7.40;99.90;;;;;;5074452;28;20445;-70
2022/02/15 05:51:05;;;;;;;10.53;7.37;;;7.40;99.90;;;;;;5074075;28;20948;-70
2022/02/15 05:53:32;;;;;;;7.63;6.67;;;7.50;99.90;;;;;;5074471;28;20444;-70
2022/02/15 05:56:01;;;;;;;8.93;6.70;;;7.30;99.90;;;;;;5074072;28;20464;-70
2022/02/15 05:58:29;;;;;;;9.87;6.77;;;7.30;99.90;;;;;;5074215;28;20463;-70
2022/02/15 06:00:57;;;;;;;10.20;6.93;;;7.30;99.90;;;;;;5074177;28;20451;-70
2022/02/15 06:06:09;;;;;;;8.07;6.23;;;7.40;99.90;;;;;;5073800;28;20451;-70
2022/02/15 06:08:36;;;;;;;8.80;7.03;;;7.40;99.90;;;;;;5073519;28;20464;-70
2022/02/15 06:11:03;;;;;;;7.93;6.47;;;7.40;99.90;;;;;;5073851;28;20459;-70
2022/02/15 06:13:30;;;;;;;11.10;6.90;;;7.50;99.90;;;;;;5073564;28;20905;-70
2022/02/15 06:15:59;;;;;;;9.60;6.77;;;7.40;99.90;;;;;;5073758;28;20465;-70
2022/02/15 06:18:26;;;;;;;10.20;7.60;;;7.50;99.90;;;;;;5073777;28;20432;-70
2022/02/15 06:20:53;;;;;;;10.63;7.10;;;7.50;99.90;;;;;;5073782;28;20467;-70
2022/02/15 06:23:19;;;;;;;14.10;7.00;;;7.50;99.90;;;;;;5073737;28;20464;-70
2022/02/15 06:25:46;;;;;;;12.17;7.80;;;7.50;99.90;;;;;;5073696;28;20461;-70
2022/02/15 06:28:13;;;;;;;12.90;7.00;;;7.40;99.90;;;;;;5073287;28;20928;-70
2022/02/15 06:30:39;;;;;;;17.10;8.00;;;7.50;99.90;;;;;;5073589;28;20441;-70
2022/02/15 06:33:07;;;;;;;14.10;9.40;;;7.50;99.90;;;;;;5073295;28;20456;-70
2022/02/15 06:35:34;;;;;;;14.50;8.67;;;7.40;99.90;;;;;;5073434;28;20469;-70
2022/02/15 06:38:01;;;;;;;12.57;8.47;;;7.50;99.90;;;;;;5073537;28;20794;-70
2022/02/15 06:40:28;;;;;;;11.93;9.13;;;7.40;99.90;;;;;;5073378;28;20520;-70
2022/02/15 06:42:54;;;;;;;12.10;9.00;;;7.50;99.90;;;;;;5073241;28;20433;-70
2022/02/15 06:45:21;;;;;;;12.70;9.50;;;7.50;99.90;;;;;;5073461;28;20472;-70
2022/02/15 06:47:48;;;;;;;17.10;11.70;;;7.50;99.90;;;;;;5073388;28;20447;-70
2022/02/15 06:50:16;;;;;;;15.53;11.23;;;7.60;99.90;;;;;;5073425;28;20448;-70
2022/02/15 06:52:43;;;;;;;15.80;10.17;;;7.60;99.90;;;;;;5073042;28;20965;-70
2022/02/15 06:55:10;;;;;;;19.23;11.10;;;7.60;99.90;;;;;;5072977;28;20444;-70
2022/02/15 06:57:37;;;;;;;15.17;10.97;;;7.60;99.90;;;;;;5073007;28;20931;-70
2022/02/15 07:00:05;;;;;;;15.33;10.97;;;7.60;99.90;;;;;;5073246;28;21009;-70
2022/02/15 07:02:32;;;;;;;21.10;12.17;;;7.60;99.90;;;;;;5073269;28;20476;-70
2022/02/15 07:04:58;;;;;;;20.40;12.37;;;7.60;99.90;;;;;;5073144;28;20967;-69
2022/02/15 07:07:26;;;;;;;22.60;12.90;;;7.70;99.90;;;;;;5075066;28;20475;-69
2022/02/15 07:09:53;;;;;;;14.93;12.13;;;7.70;99.90;;;;;;5077309;28;20456;-69
2022/02/15 07:12:20;;;;;;;20.90;12.47;;;7.70;99.90;;;;;;5077222;28;20447;-70
2022/02/15 07:14:47;;;;;;;22.17;12.83;;;7.80;99.90;;;;;;5076872;28;21000;-70
2022/02/15 07:17:14;;;;;;;18.03;12.60;;;7.70;99.90;;;;;;5077035;28;20472;-69
2022/02/15 07:19:40;;;;;;;20.73;13.60;;;7.60;99.90;;;;;;5076689;28;21018;-70
2022/02/15 07:22:07;;;;;;;18.97;12.93;;;7.60;99.90;;;;;;5076999;28;20452;-70
2022/02/15 07:24:36;;;;;;;25.90;14.63;;;7.60;99.90;;;;;;5077009;28;20447;-70
2022/02/15 07:27:02;;;;;;;19.60;13.97;;;7.60;99.90;;;;;;5076866;28;20464;-70
2022/02/15 07:29:29;;;;;;;19.30;14.43;;;7.60;99.90;;;;;;5076876;28;20465;-70
2022/02/15 07:31:56;;;;;;;21.50;14.00;;;7.50;99.90;;;;;;5076621;28;20436;-69
2022/02/15 07:34:23;;;;;;;17.77;13.27;;;7.50;99.90;;;;;;5076855;28;20448;-71
2022/02/15 07:36:51;;;;;;;19.70;13.27;;;7.60;99.90;;;;;;5076683;28;20456;-70
2022/02/15 07:39:18;;;;;;;21.77;15.33;;;7.60;99.90;;;;;;5076333;28;20468;-70
2022/02/15 07:41:47;;;;;;;22.20;14.20;;;7.60;99.90;;;;;;5076653;28;20556;-70
2022/02/15 07:44:13;;;;;;;23.77;14.80;;;7.60;99.90;;;;;;5076664;28;20487;-70
2022/02/15 07:46:40;;;;;;;20.70;15.30;;;7.70;99.90;;;;;;5076396;28;20472;-70
2022/02/15 07:49:07;;;;;;;22.13;14.00;;;7.70;99.90;;;;;;5076511;28;20444;-70
2022/02/15 07:51:34;;;;;;;26.13;16.43;;;7.70;99.90;;;;;;5076351;28;20470;-70
2022/02/15 07:54:01;;;;;;;19.53;15.17;;;7.70;99.90;;;;;;5076419;28;20804;-70
2022/02/15 07:56:28;;;;;;;23.97;16.70;;;7.70;99.90;;;;;;5076306;28;20499;-70
2022/02/15 07:58:56;;;;;;;21.50;15.60;;;7.80;99.90;;;;;;5076210;28;20475;-70
2022/02/15 08:01:23;;;;;;;22.40;16.43;;;7.80;99.90;;;;;;5076239;28;20448;-70
2022/02/15 08:03:50;;;;;;;19.73;15.43;;;7.70;99.90;;;;;;5076204;28;20445;-70
2022/02/15 08:06:17;;;;;;;25.17;15.80;;;7.70;99.90;;;;;;5076223;28;20464;-70
2022/02/15 08:08:44;;;;;;;24.53;15.10;;;7.80;99.90;;;;;;5076181;28;20516;-70
2022/02/15 08:11:11;;;;;;;24.53;15.30;;;7.70;99.90;;;;;;5075794;28;20447;-70
2022/02/15 08:13:39;;;;;;;19.70;14.37;;;7.80;99.90;;;;;;5075778;28;20459;-70
2022/02/15 08:16:07;;;;;;;20.10;14.00;;;7.80;99.90;;;;;;5075610;28;20476;-70
2022/02/15 08:18:36;;;;;;;30.93;15.80;;;7.90;99.90;;;;;;5075439;28;20452;-70
2022/02/15 08:21:03;;;;;;;18.47;13.13;;;7.80;99.90;;;;;;5075777;28;20480;-70
2022/02/15 08:23:30;;;;;;;19.33;14.10;;;7.80;99.90;;;;;;5075929;28;20449;-70
2022/02/15 08:25:56;;;;;;;17.80;12.93;;;7.90;99.90;;;;;;5075711;28;20467;-70
2022/02/15 08:28:23;;;;;;;14.60;12.40;;;7.90;99.90;;;;;;5076030;28;20441;-70
2022/02/15 08:30:50;;;;;;;16.63;13.13;;;7.90;99.90;;;;;;5076056;28;20446;-70
2022/02/15 08:33:18;;;;;;;17.30;11.77;;;8.00;99.90;;;;;;5075586;28;20450;-70
2022/02/15 08:35:45;;;;;;;20.63;12.93;;;8.00;99.90;;;;;;5075448;28;20968;-70
2022/02/15 08:38:12;;;;;;;15.47;11.23;;;8.00;99.90;;;;;;5075559;28;20447;-70
2022/02/15 08:40:39;;;;;;;18.87;11.90;;;8.00;99.90;;;;;;5075250;28;20859;-70
2022/02/15 08:43:06;;;;;;;14.47;10.60;;;8.00;99.90;;;;;;5075564;28;20445;-70
2022/02/15 08:45:32;;;;;;;16.20;10.23;;;8.00;99.90;;;;;;5075478;28;20472;-69
2022/02/15 08:47:59;;;;;;;16.17;10.73;;;8.00;99.90;;;;;;5075427;28;20449;-69
2022/02/15 08:50:27;;;;;;;22.57;11.70;;;8.00;99.90;;;;;;5075390;28;20436;-69
2022/02/15 08:52:54;;;;;;;16.20;11.87;;;8.00;99.90;;;;;;5075324;28;20445;-69
2022/02/15 08:55:21;;;;;;;13.80;11.50;;;8.00;99.90;;;;;;5074968;28;20889;-70
2022/02/15 08:57:48;;;;;;;15.60;10.97;;;8.10;99.90;;;;;;5075182;28;20452;-70
2022/02/15 09:00:15;;;;;;;12.93;10.37;;;8.10;99.90;;;;;;5074826;28;20487;-70
2022/02/15 09:02:42;;;;;;;12.90;10.43;;;8.10;99.90;;;;;;5075037;28;20452;-70
2022/02/15 09:05:09;;;;;;;14.03;9.93;;;8.20;99.90;;;;;;5075154;28;20455;-70
2022/02/15 09:07:37;;;;;;;14.93;10.60;;;8.20;99.90;;;;;;5074893;28;20510;-70
2022/02/15 09:10:05;;;;;;;17.43;11.03;;;8.10;99.90;;;;;;5075210;28;20455;-70
2022/02/15 09:12:32;;;;;;;15.40;10.53;;;8.10;99.90;;;;;;5075091;28;20449;-70
2022/02/15 09:14:59;;;;;;;12.00;9.50;;;8.10;99.90;;;;;;5074614;28;20969;-70
2022/02/15 09:17:26;;;;;;;16.97;10.93;;;8.10;99.90;;;;;;5075000;28;20445;-70
2022/02/15 09:19:53;;;;;;;14.00;10.80;;;8.10;99.90;;;;;;5074631;28;20990;-70
2022/02/15 09:22:19;;;;;;;17.40;11.10;;;8.20;99.90;;;;;;5075062;28;20444;-70
2022/02/15 09:24:47;;;;;;;11.13;9.53;;;8.10;99.90;;;;;;5074853;28;20428;-70
2022/02/15 09:27:14;;;;;;;13.00;9.90;;;8.10;99.90;;;;;;5074769;28;20468;-70
2022/02/15 09:29:41;;;;;;;12.93;10.43;;;8.10;99.90;;;;;;5074210;28;20444;-70
2022/02/15 09:32:08;;;;;;;16.47;10.43;;;8.10;99.90;;;;;;5074289;28;20966;-70
2022/02/15 09:34:35;;;;;;;20.50;10.73;;;8.10;99.90;;;;;;5074356;28;20451;-70
2022/02/15 09:37:02;;;;;;;13.27;10.50;;;8.10;99.90;;;;;;5074477;28;20850;-69
2022/02/15 09:39:29;;;;;;;15.23;11.77;;;8.10;99.90;;;;;;5074131;28;20444;-69
2022/02/15 09:41:58;;;;;;;11.53;10.33;;;8.20;99.90;;;;;;5074521;28;20433;-70
2022/02/15 09:44:25;;;;;;;17.23;10.90;;;8.20;99.90;;;;;;5074667;28;20456;-70
2022/02/15 09:46:53;;;;;;;12.30;10.63;;;8.30;99.90;;;;;;5074188;28;20816;-70
2022/02/15 09:52:05;;;;;;;15.37;10.40;;;8.40;99.90;;;;;;5074253;28;20400;-70
2022/02/15 09:54:33;;;;;;;14.00;10.30;;;8.50;99.90;;;;;;5073987;28;20445;-70
2022/02/15 09:57:01;;;;;;;15.03;9.70;;;8.40;99.90;;;;;;5074079;28;20468;-70
2022/02/15 09:59:27;;;;;;;17.90;9.63;;;8.50;99.90;;;;;;5073655;28;20920;-70
2022/02/15 10:01:54;;;;;;;14.17;9.43;;;8.40;99.90;;;;;;5073755;28;20452;-70
2022/02/15 10:04:33;;;;;;;14.90;9.50;;;8.40;99.90;;;;;;5073874;28;20502;-70
2022/02/15 10:07:00;;;;;;;13.03;9.23;;;8.40;99.90;;;;;;5073564;28;20512;-69
2022/02/15 10:09:28;;;;;;;14.60;9.77;;;8.50;99.90;;;;;;5073845;28;20448;-69
2022/02/15 10:12:04;;;;;;;10.53;8.30;;;8.50;99.90;;;;;;5074541;28;20451;-69
2022/02/15 10:14:31;;;;;;;32.00;10.20;;;8.70;99.90;;;;;;5073826;28;20466;-70
2022/02/15 10:16:59;;;;;;;9.83;8.80;;;8.60;99.90;;;;;;5073304;28;21005;-70
2022/02/15 10:19:27;;;;;;;12.77;7.80;;;8.70;99.90;;;;;;5073726;28;20452;-70
2022/02/15 10:21:55;;;;;;;11.00;7.70;;;8.80;99.90;;;;;;5073752;28;20892;-70
2022/02/15 10:24:23;;;;;;;10.30;6.53;;;8.80;99.90;;;;;;5073642;28;20448;-70
2022/02/15 10:26:59;;;;;;;11.50;6.60;;;8.90;99.50;;;;;;5073236;28;20998;-70
2022/02/15 10:29:29;;;;;;;8.50;6.30;;;8.80;99.80;;;;;;5073608;28;20441;-70
2022/02/15 10:31:57;;;;;;;9.27;5.63;;;8.80;99.80;;;;;;5073866;28;20441;-70
2022/02/15 10:34:24;;;;;;;10.30;5.53;;;8.80;99.30;;;;;;5073516;28;20453;-70
2022/02/15 10:37:00;;;;;;;7.47;4.43;;;8.70;98.10;;;;;;5073449;28;20472;-69
2022/02/15 10:39:42;;;;;;;7.33;4.70;;;8.80;98.60;;;;;;5073553;28;20425;-70
2022/02/15 10:42:10;;;;;;;14.70;5.80;;;8.90;98.20;;;;;;5072451;28;20435;-70
2022/02/15 10:44:57;;;;;;;11.20;5.17;;;9.00;98.70;;;;;;5073365;28;20448;-70
2022/02/15 10:47:24;;;;;;;9.70;5.33;;;9.10;98.60;;;;;;5072713;28;20460;-70
2022/02/15 10:49:51;;;;;;;11.47;5.10;;;9.30;98.40;;;;;;5073295;28;20813;-70
2022/02/15 10:52:19;;;;;;;7.97;5.00;;;9.40;97.40;;;;;;5073284;28;20449;-70
2022/02/15 10:54:46;;;;;;;6.00;4.43;;;9.40;97.10;;;;;;5072981;28;20452;-70
2022/02/15 10:57:15;;;;;;;7.10;4.40;;;9.40;96.80;;;;;;5072965;28;20468;-70
2022/02/15 10:59:43;;;;;;;7.30;4.50;;;9.30;95.90;;;;;;5073920;28;20510;-70
2022/02/15 11:02:20;;;;;;;6.47;4.90;;;9.30;97.00;;;;;;5073121;28;20524;-70
2022/02/15 11:04:48;;;;;;;5.63;3.90;;;9.50;96.90;;;;;;5073281;28;20454;-70
2022/02/15 11:07:15;;;;;;;7.77;5.10;;;9.60;94.80;;;;;;5072839;28;20507;-70
2022/02/15 11:09:50;;;;;;;5.77;4.10;;;9.60;95.20;;;;;;5073134;28;20444;-70
2022/02/15 11:12:22;;;;;;;6.97;4.30;;;9.50;94.10;;;;;;5073168;28;20791;-70
2022/02/15 11:14:53;;;;;;;8.83;4.13;;;9.60;94.00;;;;;;5072868;28;20432;-70
2022/02/15 11:17:25;;;;;;;7.37;4.83;;;9.60;93.90;;;;;;5073007;28;20464;-69
2022/02/15 11:20:00;;;;;;;5.70;3.73;;;9.50;93.70;;;;;;5073081;28;20433;-70
2022/02/15 11:22:27;;;;;;;7.30;4.00;;;9.60;93.60;;;;;;5072748;28;20447;-70
2022/02/15 11:24:53;;;;;;;4.93;3.40;;;9.60;93.40;;;;;;5073024;28;20448;-70
2022/02/15 11:27:22;;;;;;;6.30;3.70;;;9.70;93.40;;;;;;5073073;28;20452;-70
2022/02/15 11:29:51;;;;;;;6.23;3.63;;;10.00;91.60;;;;;;5072917;28;20445;-70
2022/02/15 11:32:31;;;;;;;3.07;2.87;;;10.00;91.70;;;;;;5072921;28;20498;-70
2022/02/15 11:34:58;;;;;;;3.20;2.77;;;10.30;90.80;;;;;;5072843;28;20433;-69
2022/02/15 11:37:26;;;;;;;5.13;2.87;;;10.40;88.20;;;;;;5072662;28;20432;-70
2022/02/15 11:40:00;;;;;;;5.50;2.67;;;10.30;84.10;;;;;;5072818;28;20455;-70
2022/02/15 11:42:28;;;;;;;3.33;3.03;;;10.20;85.50;;;;;;5073306;28;20444;-70
2022/02/15 11:44:55;;;;;;;6.10;3.30;;;10.10;88.80;;;;;;5072919;28;20431;-70
2022/02/15 11:47:30;;;;;;;5.07;3.30;;;10.40;87.10;;;;;;5072493;28;20471;-70
2022/02/15 11:49:58;;;;;;;3.93;2.50;;;10.30;85.30;;;;;;5072846;28;20528;-70
2022/02/15 11:52:27;;;;;;;4.87;2.47;;;10.20;82.80;;;;;;5073167;28;20441;-70
2022/02/15 11:55:01;;;;;;;2.80;2.13;;;10.30;81.00;;;;;;5076457;28;20451;-70
2022/02/15 11:57:30;;;;;;;6.47;2.90;;;10.10;81.30;;;;;;5076427;28;20791;-70
2022/02/15 11:59:57;;;;;;;3.67;2.47;;;9.90;83.50;;;;;;5076501;28;20456;-70
2022/02/15 12:02:24;;;;;;;5.13;1.87;;;9.70;83.90;;;;;;5075903;28;20994;-70
2022/02/15 12:04:56;;;;;;;4.60;2.07;;;9.60;84.50;;;;;;5076410;28;20437;-70
2022/02/15 12:07:28;;;;;;;3.80;2.07;;;9.90;85.70;;;;;;5075984;28;20456;-70
2022/02/15 12:09:55;;;;;;;3.20;1.90;;;10.30;82.20;;;;;;5076280;28;20954;-70
2022/02/15 12:12:23;;;;;;;2.70;1.80;;;10.30;78.80;;;;;;5076137;28;20536;-70
2022/02/15 12:14:56;;;;;;;4.33;1.63;;;10.30;78.60;;;;;;5076057;28;20453;-70
2022/02/15 12:17:24;;;;;;;5.10;2.93;;;10.30;77.30;;;;;;5076032;28;20440;-70
2022/02/15 12:19:57;;;;;;;4.10;1.90;;;10.60;79.50;;;;;;5075754;28;20449;-70
2022/02/15 12:22:25;;;;;;;3.67;1.67;;;11.30;75.70;;;;;;5075937;28;20465;-70
2022/02/15 12:24:53;;;;;;;4.03;1.63;;;11.80;72.90;;;;;;5075609;28;20449;-70
2022/02/15 12:27:20;;;;;;;4.03;1.80;;;12.30;71.60;;;;;;5075485;28;20465;-71
2022/02/15 12:29:50;;;;;;;6.17;2.07;;;12.70;66.90;;;;;;5075913;28;20449;-71
2022/02/15 12:32:23;;;;;;;3.07;1.97;;;13.10;65.00;;;;;;5075585;28;20432;-71
2022/02/15 12:34:50;;;;;;;4.40;1.80;;;13.40;60.80;;;;;;5075856;28;20460;-71
2022/02/15 12:37:23;;;;;;;4.73;1.90;;;13.70;61.60;;;;;;5075363;28;21060;-70
2022/02/15 12:39:52;;;;;;;3.93;1.63;;;14.30;59.10;;;;;;5075659;28;20447;-70
2022/02/15 12:42:20;;;;;;;4.50;2.20;;;14.50;56.00;;;;;;5075627;28;20479;-70
2022/02/15 12:44:57;;;;;;;5.03;2.33;;;13.80;57.30;;;;;;5075616;28;20814;-71
2022/02/15 12:47:23;;;;;;;4.43;2.20;;;13.60;57.80;;;;;;5075555;28;20446;-70
2022/02/15 12:49:52;;;;;;;6.90;1.37;;;13.10;57.80;;;;;;5075440;28;20449;-70
2022/02/15 12:52:21;;;;;;;2.67;1.23;;;13.10;59.60;;;;;;5075475;28;20440;-70
2022/02/15 12:54:52;;;;;;;1.80;1.20;;;13.10;57.40;;;;;;5075454;28;20472;-70
2022/02/15 12:57:21;;;;;;;4.83;1.53;;;13.10;59.10;;;;;;5075215;28;20464;-70
2022/02/15 12:59:51;;;;;;;8.53;1.00;;;13.30;56.10;;;;;;5075414;28;20445;-70
2022/02/15 13:02:18;;;;;;;4.63;1.30;;;12.90;55.70;;;;;;5074806;28;21014;-70